San Francisco, California
Traffic Map
Current Weather Conditions
San Francisco, California
Clear
Clear
55°
Feels Like: 55°
Wind Chill: 55° Ceiling: Unl
Heat Index: 55° Visibility: 9mi
Dew Point: 51° Wind: 8mph
Humidity: 86% Direction: 300° (WNW)
Pressure: 30.12in Gusts: 0mph
Raw Report DataKSFO 290656Z 30007KT 9SM CLR 13/11 A3012 RMK AO2 SLP200 T01280106
Traffic Incident Summary
Active as of:
Severity:
Category:
InformationThere was an issue retrieving the traffic information for this location. Please try a different location or try again shortly.
Advertisements
Track Severe Weather on mobile